Terminal Aerodrome Forecast
Issued by NWS

Home | Current Version | Previous Version | Text Only | Print | Product List | Glossary On
Versions: 1 2 3 4 5 6 7 8 9 10 11 12 13 14 15 16 17 18 19 20 21 22 23 24 25 26 27 28 29 30 31
213
FTUS43 KDVN 240520
TAFCID
TAF
KCID 240520Z 2406/2506 06015G24KT 5SM BR VCSH BKN009 OVC015
      TEMPO 2406/2410 3SM -RA BR SCT009 OVC015
     FM241500 01011KT 4SM BR VCSH OVC007
     FM242200 34014G22KT 2SM -SN BR OVC005=

USA.gov is the U.S. government's official web portal to all federal, state and local government web resources and services.